createdAt,value
2023-01-13T00:00:35.223Z,11.02
2023-01-13T00:03:03.419Z,11.00
2023-01-13T00:05:31.403Z,11.03
2023-01-13T00:07:59.380Z,11.00
2023-01-13T00:10:27.431Z,11.03
2023-01-13T00:12:55.325Z,10.97
2023-01-13T00:15:24.829Z,11.14
2023-01-13T00:17:52.771Z,11.14
2023-01-13T00:20:21.032Z,11.20
2023-01-13T00:22:49.177Z,11.11
2023-01-13T00:25:17.532Z,11.10
2023-01-13T00:27:45.429Z,11.00
2023-01-13T00:30:14.326Z,11.11
2023-01-13T00:32:43.819Z,11.17
2023-01-13T00:35:11.829Z,11.21
2023-01-13T00:37:41.019Z,11.25
2023-01-13T00:40:11.557Z,11.26
2023-01-13T00:42:58.065Z,11.20
2023-01-13T00:45:26.033Z,11.15
2023-01-13T00:47:55.281Z,11.17
2023-01-13T00:50:23.247Z,11.09
2023-01-13T00:52:51.121Z,11.09
2023-01-13T00:55:19.100Z,11.13
2023-01-13T00:57:47.014Z,11.13
2023-01-13T01:00:16.000Z,11.18
2023-01-13T01:02:44.019Z,11.14
2023-01-13T01:05:13.340Z,11.18
2023-01-13T01:07:41.201Z,11.10
2023-01-13T01:10:11.168Z,11.05
2023-01-13T01:12:39.295Z,10.90
2023-01-13T01:15:11.653Z,10.80
2023-01-13T01:17:39.932Z,10.82
2023-01-13T01:20:10.608Z,10.83
2023-01-13T01:22:40.253Z,10.84
2023-01-13T01:25:09.642Z,10.83
2023-01-13T01:27:37.624Z,10.80
2023-01-13T01:30:08.119Z,10.63
2023-01-13T01:32:36.242Z,10.66
2023-01-13T01:35:05.191Z,10.54
2023-01-13T01:37:33.684Z,10.55
2023-01-13T01:40:03.175Z,10.58
2023-01-13T01:42:49.738Z,10.51
2023-01-13T01:45:21.051Z,10.35
2023-01-13T01:47:57.129Z,10.33
2023-01-13T01:50:27.470Z,10.33
2023-01-13T01:53:02.707Z,10.29
2023-01-13T01:55:37.111Z,10.22
2023-01-13T01:58:11.382Z,10.21
2023-01-13T02:00:39.647Z,10.15
2023-01-13T02:03:11.204Z,10.14
2023-01-13T02:05:41.388Z,10.11
2023-01-13T02:08:12.947Z,10.05
2023-01-13T02:10:48.203Z,10.11
2023-01-13T02:13:17.365Z,10.20
2023-01-13T02:15:57.921Z,10.19
2023-01-13T02:18:51.083Z,10.11
2023-01-13T02:22:15.648Z,10.12
2023-01-13T02:25:19.728Z,10.13
2023-01-13T02:28:14.132Z,10.10
2023-01-13T02:31:10.054Z,10.04
2023-01-13T02:33:53.643Z,10.07
2023-01-13T02:36:39.208Z,10.01
2023-01-13T02:39:19.100Z,9.91
2023-01-13T02:42:16.440Z,9.95
2023-01-13T02:44:51.607Z,9.84
2023-01-13T02:47:25.216Z,9.94
2023-01-13T02:50:00.428Z,9.96
2023-01-13T02:52:37.473Z,9.87
2023-01-13T02:55:15.230Z,9.82
2023-01-13T02:57:47.398Z,9.79
2023-01-13T03:00:18.885Z,9.74
2023-01-13T03:02:50.063Z,9.80
2023-01-13T03:05:18.788Z,9.77
2023-01-13T03:08:09.979Z,9.78
2023-01-13T03:11:03.747Z,9.85
2023-01-13T03:13:53.139Z,9.76
2023-01-13T03:16:31.783Z,9.82
2023-01-13T03:19:22.090Z,9.76
2023-01-13T03:21:57.165Z,9.68
2023-01-13T03:24:34.924Z,9.65
2023-01-13T03:27:12.679Z,9.76
2023-01-13T03:29:49.578Z,9.75
2023-01-13T03:32:24.531Z,9.79
2023-01-13T03:34:59.261Z,9.76
2023-01-13T03:37:35.557Z,9.73
2023-01-13T03:40:13.240Z,9.80
2023-01-13T03:43:06.732Z,9.68
2023-01-13T03:45:37.352Z,9.68
2023-01-13T03:48:13.562Z,9.67
2023-01-13T03:50:52.276Z,9.67
2023-01-13T03:53:28.529Z,9.71
2023-01-13T03:56:05.694Z,9.62
2023-01-13T03:58:42.191Z,9.60
2023-01-13T04:01:19.283Z,9.63
2023-01-13T04:03:57.667Z,9.67
2023-01-13T04:06:40.953Z,9.79
2023-01-13T04:09:18.552Z,9.75
2023-01-13T04:11:55.820Z,9.74
2023-01-13T04:14:31.456Z,9.70
2023-01-13T04:17:00.240Z,9.71
2023-01-13T04:19:28.311Z,9.61
2023-01-13T04:21:57.899Z,9.59
2023-01-13T04:24:28.052Z,9.63
2023-01-13T04:26:56.842Z,9.59
2023-01-13T04:29:25.417Z,9.65
2023-01-13T04:31:53.826Z,9.58
2023-01-13T04:34:22.015Z,9.71
2023-01-13T04:36:51.377Z,9.77
2023-01-13T04:39:21.200Z,9.85
2023-01-13T04:42:00.749Z,9.80
2023-01-13T04:44:31.564Z,9.79
2023-01-13T04:47:01.708Z,9.86
2023-01-13T04:49:33.270Z,9.84
2023-01-13T04:52:05.083Z,9.87
2023-01-13T04:54:36.786Z,9.91
2023-01-13T04:57:05.341Z,10.01
2023-01-13T04:59:34.605Z,9.96
2023-01-13T05:02:03.257Z,9.87
2023-01-13T05:04:32.017Z,9.87
2023-01-13T05:07:00.512Z,9.99
2023-01-13T05:09:33.279Z,9.98
2023-01-13T05:12:21.510Z,9.92
2023-01-13T05:15:08.609Z,9.94
2023-01-13T05:17:38.754Z,9.86
2023-01-13T05:20:11.259Z,9.93
2023-01-13T05:22:58.599Z,9.91
2023-01-13T05:25:30.570Z,9.88
2023-01-13T05:28:01.162Z,9.90
2023-01-13T05:30:33.418Z,9.94
2023-01-13T05:33:01.851Z,9.95
2023-01-13T05:35:30.011Z,9.94
2023-01-13T05:37:58.185Z,9.78
2023-01-13T05:40:45.148Z,9.75
2023-01-13T05:43:21.715Z,9.84
2023-01-13T05:45:53.552Z,9.89
2023-01-13T05:48:25.361Z,9.88
2023-01-13T05:50:54.187Z,9.81
2023-01-13T05:53:24.652Z,9.90
2023-01-13T05:55:53.126Z,9.82
2023-01-13T05:58:26.278Z,9.75
2023-01-13T06:01:01.263Z,9.62
2023-01-13T06:03:30.347Z,9.66
2023-01-13T06:06:01.602Z,9.56
2023-01-13T06:08:31.433Z,9.59
2023-01-13T06:11:00.792Z,9.56
2023-01-13T06:13:31.368Z,9.46
2023-01-13T06:16:02.263Z,9.37
2023-01-13T06:18:32.415Z,9.45
2023-01-13T06:21:02.340Z,9.45
2023-01-13T06:23:35.078Z,9.68
2023-01-13T06:26:12.326Z,9.77
2023-01-13T06:28:42.106Z,9.69
2023-01-13T06:31:11.208Z,9.75
2023-01-13T06:33:45.976Z,9.69
2023-01-13T06:36:24.706Z,9.70
2023-01-13T06:39:00.206Z,9.82
2023-01-13T06:41:51.130Z,9.70
2023-01-13T06:44:24.009Z,9.82
2023-01-13T06:46:53.747Z,9.80
2023-01-13T06:49:22.023Z,9.77
2023-01-13T06:51:50.640Z,9.76
2023-01-13T06:54:18.602Z,9.68
2023-01-13T06:56:47.021Z,9.59
2023-01-13T06:59:15.361Z,9.61
2023-01-13T07:01:45.397Z,9.69
2023-01-13T07:04:13.799Z,9.67
2023-01-13T07:06:42.761Z,9.63
2023-01-13T07:09:12.516Z,9.53
2023-01-13T07:11:40.766Z,9.52
2023-01-13T07:14:27.577Z,9.35
2023-01-13T07:16:57.515Z,9.35
2023-01-13T07:19:25.883Z,9.27
2023-01-13T07:21:57.066Z,9.32
2023-01-13T07:24:25.498Z,9.29
2023-01-13T07:34:20.185Z,9.58
2023-01-13T07:36:50.351Z,9.71
2023-01-13T07:39:21.649Z,9.61
2023-01-13T07:42:08.669Z,9.61
2023-01-13T07:44:39.427Z,9.61
2023-01-13T07:47:10.530Z,9.63
2023-01-13T07:49:40.206Z,9.62
2023-01-13T07:52:09.075Z,9.53
2023-01-13T07:54:41.385Z,9.64
2023-01-13T07:57:10.061Z,9.65
2023-01-13T07:59:38.592Z,9.59
2023-01-13T08:02:10.919Z,9.68
2023-01-13T08:10:19.746Z,9.72
2023-01-13T08:13:07.938Z,9.74
2023-01-13T08:15:36.288Z,9.84
2023-01-13T08:18:04.274Z,9.77
2023-01-13T08:20:33.271Z,9.85
2023-01-13T08:23:02.217Z,9.72
2023-01-13T08:25:35.022Z,9.72
2023-01-13T08:28:05.075Z,9.59
2023-01-13T08:30:44.575Z,9.67
2023-01-13T08:33:16.428Z,9.71
2023-01-13T08:35:46.070Z,9.72
2023-01-13T08:38:14.340Z,9.67
2023-01-13T08:40:47.099Z,9.66
2023-01-13T08:43:15.540Z,9.69
2023-01-13T08:45:44.547Z,9.67
2023-01-13T08:48:13.793Z,9.72
2023-01-13T08:50:44.789Z,9.74
2023-01-13T08:53:15.815Z,9.88
2023-01-13T08:55:46.946Z,9.94
2023-01-13T08:58:17.029Z,9.81
2023-01-13T09:00:45.446Z,9.95
2023-01-13T09:03:15.520Z,9.82
2023-01-13T09:05:44.667Z,9.92
2023-01-13T09:08:14.306Z,10.02
2023-01-13T09:10:43.157Z,10.02
2023-01-13T09:13:14.494Z,9.89
2023-01-13T09:15:47.408Z,10.03
2023-01-13T09:18:15.590Z,10.08
2023-01-13T09:20:45.040Z,10.09
2023-01-13T09:23:13.689Z,10.10
2023-01-13T09:25:42.641Z,10.24
2023-01-13T09:28:11.226Z,10.03
2023-01-13T09:30:41.748Z,10.12
2023-01-13T09:33:28.830Z,10.19
2023-01-13T09:36:02.238Z,10.11
2023-01-13T09:38:37.488Z,10.22
2023-01-13T09:41:27.361Z,10.16
2023-01-13T09:44:03.886Z,10.29
2023-01-13T09:46:48.215Z,10.48
2023-01-13T09:49:22.706Z,10.38
2023-01-13T09:52:04.124Z,10.35
2023-01-13T09:54:41.689Z,10.43
2023-01-13T09:57:13.150Z,10.47
2023-01-13T09:59:42.260Z,10.44
2023-01-13T10:02:39.301Z,10.50
2023-01-13T10:05:20.309Z,10.17
2023-01-13T10:07:57.124Z,10.22
2023-01-13T10:10:39.045Z,10.11
2023-01-13T10:13:21.282Z,10.33
2023-01-13T10:16:03.585Z,10.23
2023-01-13T10:18:59.334Z,10.28
2023-01-13T10:22:09.431Z,10.40
2023-01-13T10:25:13.190Z,10.51
2023-01-13T10:27:46.838Z,10.69
2023-01-13T10:30:21.518Z,10.79
2023-01-13T10:32:55.279Z,10.78
2023-01-13T10:35:56.550Z,10.77
2023-01-13T10:38:30.037Z,10.92
2023-01-13T10:41:04.519Z,10.99
2023-01-13T10:43:33.331Z,11.01
2023-01-13T10:46:06.118Z,11.03
2023-01-13T10:48:41.453Z,10.92
2023-01-13T10:51:22.564Z,11.06
2023-01-13T10:53:55.688Z,11.21
2023-01-13T10:56:27.736Z,10.99
2023-01-13T10:59:22.349Z,10.91
2023-01-13T11:02:01.247Z,10.74
2023-01-13T11:04:38.772Z,10.89
2023-01-13T11:07:30.373Z,10.90
2023-01-13T11:10:17.080Z,10.69
2023-01-13T11:12:58.344Z,10.66
2023-01-13T11:15:40.761Z,10.44
2023-01-13T11:18:22.576Z,10.55
2023-01-13T11:20:55.208Z,10.31
2023-01-13T11:23:34.705Z,10.36
2023-01-13T11:26:11.790Z,10.64
2023-01-13T11:28:55.047Z,10.29
2023-01-13T11:31:31.868Z,10.33
2023-01-13T11:34:08.283Z,10.36
2023-01-13T11:36:45.603Z,10.29
2023-01-13T11:39:26.417Z,10.32
2023-01-13T11:42:21.097Z,10.18
2023-01-13T11:45:04.030Z,10.25
2023-01-13T11:47:36.549Z,9.94
2023-01-13T11:50:19.073Z,9.58
2023-01-13T11:53:10.433Z,9.13
2023-01-13T11:55:59.187Z,8.97
2023-01-13T11:58:58.498Z,8.79
2023-01-13T12:01:50.378Z,8.81
2023-01-13T12:04:28.622Z,8.82
2023-01-13T12:07:15.762Z,8.98
2023-01-13T12:10:03.982Z,9.21
2023-01-13T12:13:01.189Z,9.31
2023-01-13T12:16:12.338Z,9.24
2023-01-13T12:19:26.531Z,9.41
2023-01-13T12:22:11.485Z,9.53
2023-01-13T12:24:55.291Z,9.46
2023-01-13T12:27:42.688Z,9.61
2023-01-13T12:30:28.453Z,9.62
2023-01-13T12:33:26.149Z,9.68
2023-01-13T12:36:04.005Z,9.61
2023-01-13T12:38:44.606Z,9.63
2023-01-13T12:41:29.541Z,9.61
2023-01-13T12:44:20.314Z,9.61
2023-01-13T12:46:58.140Z,9.56
2023-01-13T12:49:33.925Z,9.50
2023-01-13T12:52:19.999Z,9.32
2023-01-13T12:55:14.637Z,9.21
2023-01-13T12:58:13.695Z,9.19
2023-01-13T13:01:11.974Z,9.16
2023-01-13T13:04:03.864Z,9.15
2023-01-13T13:06:40.588Z,9.21
2023-01-13T13:09:26.608Z,9.41
2023-01-13T13:11:58.241Z,9.35
2023-01-13T13:15:03.820Z,9.51
2023-01-13T13:17:41.809Z,9.58
2023-01-13T13:20:57.522Z,9.52
2023-01-13T13:23:48.838Z,9.61
2023-01-13T13:26:46.757Z,9.58
2023-01-13T13:29:49.879Z,9.73
2023-01-13T13:32:42.205Z,9.75
2023-01-13T13:35:31.305Z,9.80
2023-01-13T13:38:41.942Z,9.79
2023-01-13T13:41:45.282Z,9.88
2023-01-13T13:44:39.323Z,9.75
2023-01-13T13:47:10.261Z,9.81
2023-01-13T13:49:42.090Z,9.57
2023-01-13T13:52:20.604Z,9.63
2023-01-13T13:54:54.560Z,9.51
2023-01-13T13:57:33.300Z,9.63
2023-01-13T14:00:09.284Z,9.64
2023-01-13T14:02:46.956Z,9.67
2023-01-13T14:05:22.900Z,9.63
2023-01-13T14:07:59.818Z,9.64
2023-01-13T14:10:36.096Z,9.46
2023-01-13T14:13:16.034Z,9.10
2023-01-13T14:15:46.566Z,8.92
2023-01-13T14:18:18.556Z,8.75
2023-01-13T14:20:55.496Z,8.82
2023-01-13T14:23:29.162Z,8.79
2023-01-13T14:26:09.011Z,8.87
2023-01-13T14:28:41.963Z,9.06
2023-01-13T14:31:19.800Z,9.11
2023-01-13T14:33:51.913Z,9.14
2023-01-13T14:36:24.184Z,9.20
2023-01-13T14:39:34.040Z,9.31
2023-01-13T14:42:04.330Z,9.44
2023-01-13T14:44:38.444Z,9.54
2023-01-13T14:47:23.330Z,9.55
2023-01-13T14:50:03.459Z,9.66
2023-01-13T14:52:35.241Z,9.49
2023-01-13T14:55:29.175Z,9.58
2023-01-13T14:58:31.001Z,9.50
2023-01-13T15:01:29.504Z,9.48
2023-01-13T15:04:17.344Z,9.46
2023-01-13T15:06:56.292Z,9.38
2023-01-13T15:09:28.870Z,9.51
2023-01-13T15:11:59.623Z,9.70
2023-01-13T15:14:32.399Z,9.72
2023-01-13T15:17:01.414Z,9.74
2023-01-13T15:19:30.124Z,9.77
2023-01-13T15:21:58.501Z,9.82
2023-01-13T15:24:26.973Z,9.82
2023-01-13T15:26:56.136Z,9.73
2023-01-13T15:29:28.095Z,9.75
2023-01-13T15:31:57.643Z,9.73
2023-01-13T15:34:26.053Z,9.51
2023-01-13T15:36:58.529Z,9.61
2023-01-13T15:39:27.272Z,9.58
2023-01-13T15:42:15.778Z,9.59
2023-01-13T15:45:02.786Z,9.63
2023-01-13T15:47:34.067Z,9.54
2023-01-13T15:50:02.386Z,9.63
2023-01-13T15:52:31.112Z,9.53
2023-01-13T15:54:59.247Z,9.48
2023-01-13T15:57:30.494Z,9.42
2023-01-13T16:00:07.495Z,9.47
2023-01-13T16:02:39.306Z,9.50
2023-01-13T16:05:13.435Z,9.61
2023-01-13T16:07:44.444Z,9.57
2023-01-13T16:10:19.333Z,9.63
2023-01-13T16:12:47.757Z,9.76
2023-01-13T16:15:18.709Z,9.55
2023-01-13T16:17:56.173Z,9.62
2023-01-13T16:20:24.779Z,9.57
2023-01-13T16:22:53.326Z,9.56
2023-01-13T16:25:26.189Z,9.58
2023-01-13T16:27:55.120Z,9.49
2023-01-13T16:30:29.079Z,9.32
2023-01-13T16:32:59.365Z,9.35
2023-01-13T16:35:28.976Z,9.12
2023-01-13T16:37:58.761Z,8.92
2023-01-13T16:40:33.803Z,8.60
2023-01-13T16:43:05.365Z,8.51
2023-01-13T16:45:34.642Z,8.38
2023-01-13T16:48:05.017Z,8.45
2023-01-13T16:50:38.680Z,8.54
2023-01-13T16:53:09.424Z,8.58
2023-01-13T16:55:41.535Z,8.70
2023-01-13T16:58:18.379Z,8.56
2023-01-13T17:00:49.063Z,8.61
2023-01-13T17:03:19.875Z,8.69
2023-01-13T17:05:47.919Z,8.69
2023-01-13T17:08:18.330Z,8.70
2023-01-13T17:10:50.439Z,8.79
2023-01-13T17:13:21.672Z,8.70
2023-01-13T17:15:49.767Z,8.73
2023-01-13T17:18:19.910Z,8.75
2023-01-13T17:20:49.400Z,8.77
2023-01-13T17:23:17.363Z,8.86
2023-01-13T17:25:45.386Z,8.81
2023-01-13T17:28:14.123Z,8.97
2023-01-13T17:30:44.112Z,8.98
2023-01-13T17:33:42.179Z,8.92
2023-01-13T17:36:10.586Z,8.97
2023-01-13T17:38:40.344Z,8.91
2023-01-13T17:41:08.438Z,8.95
2023-01-13T17:43:36.780Z,9.02
2023-01-13T17:46:09.359Z,9.07
2023-01-13T17:48:40.950Z,9.09
2023-01-13T17:51:13.348Z,9.12
2023-01-13T17:53:43.292Z,9.13
2023-01-13T17:56:14.861Z,9.18
2023-01-13T17:58:47.940Z,9.22
2023-01-13T18:01:19.406Z,9.18
2023-01-13T18:03:49.923Z,9.21
2023-01-13T18:06:21.217Z,9.21
2023-01-13T18:08:50.104Z,9.26
2023-01-13T18:14:57.518Z,9.28
2023-01-13T18:17:25.591Z,9.16
2023-01-13T18:20:15.594Z,9.08
2023-01-13T18:23:03.513Z,9.24
2023-01-13T18:25:50.325Z,9.17
2023-01-13T18:28:18.858Z,9.03
2023-01-13T18:30:51.082Z,9.12
2023-01-13T18:33:20.224Z,9.11
2023-01-13T18:35:49.832Z,9.11
2023-01-13T18:38:23.311Z,9.17
2023-01-13T18:40:51.675Z,9.17
2023-01-13T18:43:21.003Z,9.09
2023-01-13T18:45:51.308Z,9.00
2023-01-13T18:48:19.435Z,8.83
2023-01-13T18:50:49.207Z,8.81
2023-01-13T18:53:17.318Z,8.82
2023-01-13T18:55:45.293Z,8.74
2023-01-13T18:58:13.736Z,8.82
2023-01-13T19:00:42.562Z,8.69
2023-01-13T19:03:11.825Z,8.72
2023-01-13T19:05:39.857Z,8.74
2023-01-13T19:08:14.323Z,8.68
2023-01-13T19:10:48.781Z,8.66
2023-01-13T19:13:22.799Z,8.73
2023-01-13T19:15:56.504Z,8.71
2023-01-13T19:18:27.174Z,8.78
2023-01-13T19:20:55.993Z,8.79
2023-01-13T19:23:27.936Z,8.81
2023-01-13T19:26:06.518Z,8.77
2023-01-13T19:56:49.705Z,8.30
2023-01-13T19:59:29.137Z,8.22
2023-01-13T20:01:57.706Z,8.27
2023-01-13T20:04:40.506Z,8.15
2023-01-13T20:07:09.287Z,8.11
2023-01-13T20:09:37.930Z,8.16
2023-01-13T20:12:15.386Z,8.08
2023-01-13T20:24:00.642Z,8.19
2023-01-13T20:26:35.367Z,8.20
2023-01-13T20:29:46.981Z,8.25
2023-01-13T20:33:00.123Z,8.09
2023-01-13T20:36:01.121Z,8.11
2023-01-13T20:39:08.777Z,7.99
2023-01-13T20:41:58.786Z,8.07
2023-01-13T20:44:34.617Z,7.93
2023-01-13T20:47:05.090Z,8.03
2023-01-13T20:49:36.909Z,8.00
2023-01-13T20:52:09.622Z,8.14
2023-01-13T20:54:41.950Z,8.06
2023-01-13T20:57:12.264Z,8.03
2023-01-13T20:59:40.563Z,8.05
2023-01-13T21:02:14.020Z,8.02
2023-01-13T21:04:44.853Z,8.00
2023-01-13T21:07:13.173Z,8.08
2023-01-13T21:09:46.543Z,7.99
2023-01-13T21:12:35.642Z,8.12
2023-01-13T21:15:17.194Z,8.08
2023-01-13T21:18:06.345Z,8.13
2023-01-13T21:20:36.907Z,8.09
2023-01-13T21:23:06.527Z,8.16
2023-01-13T21:25:43.529Z,8.10
2023-01-13T21:28:13.573Z,8.13
2023-01-13T21:30:43.809Z,8.14
2023-01-13T21:33:14.487Z,8.02
2023-01-13T21:35:42.738Z,8.10
2023-01-13T21:38:12.120Z,8.12
2023-01-13T21:40:42.467Z,8.13
2023-01-13T21:43:31.970Z,8.09
2023-01-13T21:46:18.728Z,8.15
2023-01-13T21:48:50.099Z,8.10
2023-01-13T21:51:18.229Z,8.11
2023-01-13T21:53:46.226Z,8.11
2023-01-13T21:56:24.272Z,8.13
2023-01-13T21:58:52.484Z,8.18
2023-01-13T22:01:20.577Z,8.16
2023-01-13T22:04:07.292Z,8.19
2023-01-13T22:06:39.589Z,8.24
2023-01-13T22:09:07.746Z,8.37
2023-01-13T22:11:37.127Z,8.33
2023-01-13T22:14:13.421Z,8.30
2023-01-13T22:16:49.029Z,8.20
2023-01-13T22:19:18.296Z,8.32
2023-01-13T22:21:46.261Z,8.23
2023-01-13T22:24:14.594Z,8.14
2023-01-13T22:26:44.962Z,8.18
2023-01-13T22:29:13.029Z,8.19
2023-01-13T22:31:41.463Z,8.21
2023-01-13T22:34:15.195Z,8.21
2023-01-13T22:36:43.256Z,8.27
2023-01-13T22:39:12.265Z,8.20
2023-01-13T22:41:40.271Z,8.14
2023-01-13T22:44:09.823Z,8.23
2023-01-13T22:46:39.841Z,8.32
2023-01-13T22:49:08.483Z,8.19
2023-01-13T22:51:36.612Z,8.24
2023-01-13T22:54:05.427Z,8.18
2023-01-13T22:56:33.847Z,8.11
2023-01-13T22:59:04.568Z,8.18
2023-01-13T23:01:35.363Z,8.13
2023-01-13T23:04:05.107Z,8.11
2023-01-13T23:06:40.095Z,8.13
2023-01-13T23:09:10.100Z,8.14
2023-01-13T23:11:39.609Z,8.18
2023-01-13T23:14:11.875Z,8.20
2023-01-13T23:16:42.149Z,8.18
2023-01-13T23:19:11.016Z,8.16
2023-01-13T23:21:39.050Z,8.21
2023-01-13T23:24:08.417Z,8.25
2023-01-13T23:26:40.987Z,8.18
2023-01-13T23:29:13.209Z,8.03
2023-01-13T23:31:43.531Z,7.94
2023-01-13T23:34:12.475Z,7.96
2023-01-13T23:36:42.487Z,7.99
2023-01-13T23:39:10.909Z,7.88
2023-01-13T23:41:39.542Z,7.85
2023-01-13T23:44:07.990Z,7.97
2023-01-13T23:46:36.637Z,8.02
2023-01-13T23:49:07.165Z,8.03
2023-01-13T23:51:35.369Z,8.14
2023-01-13T23:54:03.526Z,8.22
2023-01-13T23:56:33.229Z,8.36
2023-01-13T23:59:01.206Z,8.46
